Preview of NWS' New Version of Forecast
This preview is not operational and should not be used for support decisions.

Terminal Aerodrome Forecast (TAF)

Issued by National Weather Service (NWS)

                            
000
FTUS42 KKEY 270852 AAB
TAFEYW
TAF AMD
KEYW 270852Z 2709/2806 17022G33KT P6SM VCSH FEW008 SCT017 BKN040
     FM271200 19025G36KT 5SM -RA FEW008 SCT012 OVC025
      TEMPO 2712/2715 21033G41KT 1/2SM +TSRA FG BKN008CB OVC020
     FM271500 20020G32KT P6SM VCSH SCT010 SCT015 BKN050
      TEMPO 2715/2719 22025G38KT 1/2SM +TSRA FG BKN010CB OVC020=